createdAt,value
2018-09-15T00:00:22.504Z,5.37
2018-09-15T00:00:56.882Z,4.97
2018-09-15T00:01:30.322Z,5.53
2018-09-15T00:02:04.627Z,5.10
2018-09-15T00:02:38.129Z,5.17
2018-09-15T00:03:11.615Z,5.07
2018-09-15T00:03:45.044Z,5.10
2018-09-15T00:04:18.421Z,5.17
2018-09-15T00:04:51.734Z,4.60
2018-09-15T00:05:25.079Z,5.00
2018-09-15T00:05:58.498Z,4.73
2018-09-15T00:06:31.908Z,4.47
2018-09-15T00:07:05.572Z,4.80
2018-09-15T00:07:38.947Z,5.10
2018-09-15T00:08:12.348Z,4.97
2018-09-15T00:08:45.795Z,5.00
2018-09-15T00:09:19.212Z,4.93
2018-09-15T00:09:52.852Z,5.27
2018-09-15T00:10:26.253Z,5.23
2018-09-15T00:10:59.879Z,5.17
2018-09-15T00:11:33.304Z,5.07
2018-09-15T00:12:06.685Z,4.97
2018-09-15T00:12:40.037Z,5.00
2018-09-15T00:13:13.870Z,4.70
2018-09-15T00:13:47.308Z,4.63
2018-09-15T00:14:20.648Z,4.97
2018-09-15T00:14:54.000Z,5.43
2018-09-15T00:15:27.414Z,5.37
2018-09-15T00:16:00.797Z,5.43
2018-09-15T00:16:34.181Z,5.10
2018-09-15T00:17:07.651Z,5.30
2018-09-15T00:17:42.782Z,5.47
2018-09-15T00:18:17.177Z,4.67
2018-09-15T00:18:50.652Z,4.80
2018-09-15T00:19:23.975Z,5.27
2018-09-15T00:19:57.456Z,5.37
2018-09-15T00:20:30.796Z,5.47
2018-09-15T00:21:04.208Z,5.20
2018-09-15T00:21:37.591Z,5.80
2018-09-15T00:22:10.934Z,5.47
2018-09-15T00:22:44.355Z,5.43
2018-09-15T00:23:17.803Z,5.37
2018-09-15T00:23:51.183Z,6.07
2018-09-15T00:24:24.502Z,5.20
2018-09-15T00:24:57.890Z,5.40
2018-09-15T00:25:31.317Z,5.60
2018-09-15T00:26:04.680Z,5.13
2018-09-15T00:26:38.013Z,5.43
2018-09-15T00:27:11.336Z,4.97
2018-09-15T00:27:44.720Z,5.03
2018-09-15T00:28:18.116Z,5.07
2018-09-15T00:28:51.597Z,5.20
2018-09-15T00:29:24.989Z,5.47
2018-09-15T00:29:58.712Z,5.70
2018-09-15T00:30:32.278Z,5.07
2018-09-15T00:31:05.672Z,5.27
2018-09-15T00:31:39.361Z,5.10
2018-09-15T00:32:12.756Z,5.07
2018-09-15T00:32:46.115Z,5.27
2018-09-15T00:33:19.420Z,5.27
2018-09-15T00:33:52.805Z,5.17
2018-09-15T00:34:26.467Z,5.33
2018-09-15T00:34:59.896Z,5.20
2018-09-15T00:35:33.280Z,4.97
2018-09-15T00:36:06.671Z,5.00
2018-09-15T00:36:40.033Z,5.50
2018-09-15T00:37:13.469Z,5.10
2018-09-15T00:37:46.815Z,5.10
2018-09-15T00:38:20.173Z,4.70
2018-09-15T00:38:53.520Z,4.67
2018-09-15T00:39:26.882Z,5.40
2018-09-15T00:40:00.235Z,4.90
2018-09-15T00:40:33.767Z,5.30
2018-09-15T00:41:07.168Z,5.43
2018-09-15T00:41:40.754Z,6.20
2018-09-15T00:42:14.165Z,6.00
2018-09-15T00:42:47.717Z,5.33
2018-09-15T00:43:21.097Z,6.17
2018-09-15T00:43:54.664Z,5.43
2018-09-15T00:44:28.046Z,5.17
2018-09-15T00:45:01.400Z,5.93
2018-09-15T00:45:34.799Z,5.93
2018-09-15T00:46:08.218Z,5.93
2018-09-15T00:46:41.730Z,6.33
2018-09-15T00:47:15.166Z,6.00
2018-09-15T00:47:48.545Z,5.93
2018-09-15T00:48:21.887Z,6.10
2018-09-15T00:48:55.297Z,5.93
2018-09-15T00:49:28.654Z,6.20
2018-09-15T00:50:02.128Z,6.23
2018-09-15T00:50:35.486Z,5.70
2018-09-15T00:51:08.813Z,6.27
2018-09-15T00:51:42.196Z,7.00
2018-09-15T00:52:15.549Z,7.10
2018-09-15T00:52:48.906Z,6.70
2018-09-15T00:53:22.294Z,6.13
2018-09-15T00:53:56.423Z,6.43
2018-09-15T00:54:30.124Z,6.50
2018-09-15T00:55:03.485Z,6.87
2018-09-15T00:55:36.916Z,6.50
2018-09-15T00:56:10.393Z,7.33
2018-09-15T00:56:44.268Z,6.57
2018-09-15T00:57:17.650Z,6.80
2018-09-15T00:57:51.318Z,7.13
2018-09-15T00:58:24.923Z,6.63
2018-09-15T00:58:58.449Z,6.67
2018-09-15T00:59:31.907Z,6.57
2018-09-15T01:00:07.390Z,6.80
2018-09-15T01:00:40.912Z,6.23
2018-09-15T01:01:14.255Z,6.13
2018-09-15T01:01:47.655Z,7.20
2018-09-15T01:02:21.029Z,6.83
2018-09-15T01:02:54.456Z,7.47
2018-09-15T01:03:27.906Z,6.70
2018-09-15T01:04:02.820Z,7.40
2018-09-15T01:04:36.297Z,7.37
2018-09-15T01:05:09.637Z,6.57
2018-09-15T01:05:43.696Z,6.70
2018-09-15T01:06:17.241Z,6.57
2018-09-15T01:06:50.703Z,6.80
2018-09-15T01:07:24.123Z,7.27
2018-09-15T01:07:57.511Z,7.17
2018-09-15T01:08:31.006Z,6.23
2018-09-15T01:09:07.418Z,6.67
2018-09-15T01:09:40.748Z,6.77
2018-09-15T01:10:14.179Z,7.13
2018-09-15T01:10:47.537Z,7.00
2018-09-15T01:11:20.938Z,6.23
2018-09-15T01:11:54.354Z,6.07
2018-09-15T01:12:27.824Z,6.67
2018-09-15T01:13:01.214Z,6.63
2018-09-15T01:13:34.549Z,6.90
2018-09-15T01:14:08.044Z,6.07
2018-09-15T01:14:41.351Z,6.50
2018-09-15T01:15:14.688Z,6.43
2018-09-15T01:15:48.027Z,6.63
2018-09-15T01:16:21.395Z,6.80
2018-09-15T01:16:54.798Z,6.50
2018-09-15T01:17:28.096Z,6.63
2018-09-15T01:18:01.467Z,6.40
2018-09-15T01:18:34.952Z,6.60
2018-09-15T01:19:09.067Z,6.40
2018-09-15T01:19:42.428Z,6.30
2018-09-15T01:20:15.769Z,6.27
2018-09-15T01:20:49.257Z,6.20
2018-09-15T01:21:22.676Z,6.17
2018-09-15T01:21:56.192Z,6.37
2018-09-15T01:22:29.720Z,6.20
2018-09-15T01:23:03.093Z,6.77
2018-09-15T01:23:36.497Z,6.70
2018-09-15T01:24:10.393Z,6.57
2018-09-15T01:24:44.500Z,6.37
2018-09-15T01:25:17.810Z,6.43
2018-09-15T01:25:51.135Z,5.97
2018-09-15T01:26:24.522Z,6.27
2018-09-15T01:26:57.955Z,5.90
2018-09-15T01:27:31.389Z,6.33
2018-09-15T01:28:04.949Z,5.90
2018-09-15T01:28:38.360Z,6.20
2018-09-15T01:29:11.725Z,6.20
2018-09-15T01:29:45.105Z,6.03
2018-09-15T01:30:18.776Z,6.33
2018-09-15T01:30:52.283Z,5.90
2018-09-15T01:31:25.973Z,5.80
2018-09-15T01:31:59.491Z,5.77
2018-09-15T01:32:32.836Z,5.63
2018-09-15T01:33:06.803Z,5.57
2018-09-15T01:33:40.243Z,6.40
2018-09-15T01:34:13.564Z,5.97
2018-09-15T01:34:47.139Z,5.63
2018-09-15T01:35:20.467Z,5.40
2018-09-15T01:35:53.859Z,5.53
2018-09-15T01:36:27.302Z,5.40
2018-09-15T01:37:01.004Z,5.47
2018-09-15T01:37:34.496Z,5.80
2018-09-15T01:38:08.097Z,5.47
2018-09-15T01:38:41.499Z,5.50
2018-09-15T01:39:14.850Z,6.00
2018-09-15T01:39:48.273Z,5.53
2018-09-15T01:40:21.660Z,5.87
2018-09-15T01:40:55.013Z,5.33
2018-09-15T01:41:28.406Z,5.63
2018-09-15T01:42:01.966Z,5.60
2018-09-15T01:42:35.322Z,5.20
2018-09-15T01:43:08.708Z,5.13
2018-09-15T01:43:41.988Z,5.13
2018-09-15T01:44:16.102Z,4.93
2018-09-15T01:44:49.491Z,5.60
2018-09-15T01:45:22.899Z,5.57
2018-09-15T01:45:56.270Z,6.17
2018-09-15T01:46:29.629Z,5.50
2018-09-15T01:47:02.934Z,5.27
2018-09-15T01:47:36.319Z,5.47
2018-09-15T01:48:09.699Z,5.83
2018-09-15T01:48:43.375Z,5.20
2018-09-15T01:49:16.748Z,5.37
2018-09-15T01:49:50.266Z,5.17
2018-09-15T01:50:23.643Z,5.67
2018-09-15T01:50:57.144Z,5.73
2018-09-15T01:51:30.590Z,5.60
2018-09-15T01:52:04.437Z,5.33
2018-09-15T01:52:37.847Z,5.43
2018-09-15T01:53:11.181Z,5.70
2018-09-15T01:53:44.486Z,5.13
2018-09-15T01:54:17.907Z,5.30
2018-09-15T01:54:51.315Z,5.47
2018-09-15T01:55:24.616Z,5.33
2018-09-15T01:55:57.987Z,5.30
2018-09-15T01:56:31.367Z,5.20
2018-09-15T01:57:04.811Z,5.73
2018-09-15T01:57:38.284Z,4.93
2018-09-15T01:58:11.769Z,5.60
2018-09-15T01:58:45.580Z,5.60
2018-09-15T01:59:19.324Z,5.17
2018-09-15T01:59:53.048Z,4.80
2018-09-15T02:00:26.440Z,4.97
2018-09-15T02:00:59.878Z,5.20
2018-09-15T02:01:33.534Z,5.17
2018-09-15T02:02:07.246Z,5.87
2018-09-15T02:02:41.326Z,5.30
2018-09-15T02:03:14.957Z,5.33
2018-09-15T02:03:48.486Z,5.80
2018-09-15T02:04:21.882Z,5.47
2018-09-15T02:04:55.659Z,5.53
2018-09-15T02:05:29.239Z,5.20
2018-09-15T02:06:02.776Z,4.67
2018-09-15T02:06:36.567Z,5.23
2018-09-15T02:07:10.204Z,5.50
2018-09-15T02:07:43.637Z,5.23
2018-09-15T02:08:17.085Z,4.93
2018-09-15T02:08:50.558Z,4.87
2018-09-15T02:09:24.014Z,4.73
2018-09-15T02:09:57.780Z,5.07
2018-09-15T02:10:31.471Z,5.10
2018-09-15T02:11:04.848Z,5.30
2018-09-15T02:11:38.243Z,5.13
2018-09-15T02:12:11.784Z,4.77
2018-09-15T02:12:45.290Z,5.13
2018-09-15T02:13:18.654Z,5.13
2018-09-15T02:13:52.022Z,5.23
2018-09-15T02:14:25.484Z,4.73
2018-09-15T02:14:58.840Z,4.87
2018-09-15T02:15:32.216Z,4.90
2018-09-15T02:16:05.604Z,5.10
2018-09-15T02:16:39.167Z,4.93
2018-09-15T02:17:12.550Z,5.03
2018-09-15T02:17:45.881Z,5.13
2018-09-15T02:18:19.486Z,5.23
2018-09-15T02:18:52.923Z,5.20
2018-09-15T02:19:26.263Z,4.80
2018-09-15T02:19:59.644Z,5.13
2018-09-15T02:20:32.979Z,5.80
2018-09-15T02:21:08.608Z,5.30
2018-09-15T02:21:42.006Z,5.27
2018-09-15T02:22:15.468Z,5.00
2018-09-15T02:22:49.153Z,5.33
2018-09-15T02:23:22.493Z,4.90
2018-09-15T02:23:55.897Z,4.80
2018-09-15T02:24:29.328Z,5.00
2018-09-15T02:25:02.714Z,5.30
2018-09-15T02:25:36.111Z,5.37
2018-09-15T02:26:09.752Z,5.13
2018-09-15T02:26:43.176Z,5.33
2018-09-15T02:27:16.633Z,5.00
2018-09-15T02:27:49.980Z,5.30
2018-09-15T02:28:23.400Z,4.93
2018-09-15T02:28:56.948Z,4.80
2018-09-15T02:29:30.310Z,5.77
2018-09-15T02:30:03.969Z,5.40
2018-09-15T02:30:37.602Z,5.63
2018-09-15T02:31:11.106Z,5.40
2018-09-15T02:31:44.563Z,5.27
2018-09-15T02:32:17.964Z,5.00
2018-09-15T02:32:51.613Z,5.40
2018-09-15T02:33:24.969Z,5.13
2018-09-15T02:33:58.316Z,5.30
2018-09-15T02:34:31.660Z,6.37
2018-09-15T02:35:05.098Z,5.33
2018-09-15T02:35:38.471Z,5.67
2018-09-15T02:36:11.852Z,5.30
2018-09-15T02:36:45.234Z,5.40
2018-09-15T02:37:19.289Z,5.60
2018-09-15T02:37:52.618Z,5.23
2018-09-15T02:38:25.997Z,5.37
2018-09-15T02:38:59.326Z,5.00
2018-09-15T02:39:32.851Z,5.57
2018-09-15T02:40:06.731Z,6.00
2018-09-15T02:40:40.148Z,5.40
2018-09-15T02:41:14.268Z,5.70
2018-09-15T02:41:47.627Z,5.43
2018-09-15T02:42:21.004Z,5.43
2018-09-15T02:42:54.729Z,5.40
2018-09-15T02:43:28.126Z,5.50
2018-09-15T02:44:01.492Z,5.43
2018-09-15T02:44:34.847Z,5.90
2018-09-15T02:45:08.464Z,5.63
2018-09-15T02:45:42.230Z,6.13
2018-09-15T02:46:16.220Z,5.63
2018-09-15T02:46:49.568Z,5.80
2018-09-15T02:47:22.952Z,5.60
2018-09-15T02:47:56.437Z,6.20
2018-09-15T02:48:29.817Z,5.60
2018-09-15T02:49:03.272Z,5.70
2018-09-15T02:49:36.689Z,6.00
2018-09-15T02:50:10.165Z,6.00
2018-09-15T02:50:43.516Z,5.67
2018-09-15T02:51:16.856Z,5.60
2018-09-15T02:51:50.221Z,5.93
2018-09-15T02:52:23.699Z,5.70
2018-09-15T02:52:57.209Z,6.17
2018-09-15T02:53:30.548Z,5.80
2018-09-15T02:54:03.930Z,6.60
2018-09-15T02:54:37.389Z,5.57
2018-09-15T02:55:10.760Z,6.07
2018-09-15T02:55:44.116Z,5.67
2018-09-15T02:56:17.570Z,6.27
2018-09-15T02:56:50.941Z,5.83
2018-09-15T02:57:24.327Z,5.80
2018-09-15T02:57:57.842Z,6.40
2018-09-15T02:58:31.275Z,6.07
2018-09-15T02:59:04.753Z,6.20
2018-09-15T02:59:38.149Z,6.57
2018-09-15T03:00:11.644Z,5.67
2018-09-15T03:00:45.027Z,6.30
2018-09-15T03:01:18.625Z,5.33
2018-09-15T03:01:52.035Z,6.17
2018-09-15T03:02:25.550Z,6.00
2018-09-15T03:02:59.005Z,6.00
2018-09-15T03:03:32.433Z,5.83
2018-09-15T03:04:05.917Z,6.03
2018-09-15T03:04:39.341Z,6.50
2018-09-15T03:05:13.583Z,6.00
2018-09-15T03:05:47.067Z,5.77
2018-09-15T03:06:20.558Z,5.93
2018-09-15T03:06:53.951Z,6.40
2018-09-15T03:07:27.547Z,5.80
2018-09-15T03:08:00.900Z,6.00
2018-09-15T03:08:34.256Z,6.47
2018-09-15T03:09:10.726Z,6.17
2018-09-15T03:09:44.073Z,6.30
2018-09-15T03:10:17.594Z,5.83
2018-09-15T03:10:51.436Z,6.47
2018-09-15T03:11:25.088Z,6.40
2018-09-15T03:11:58.417Z,6.10
2018-09-15T03:12:31.706Z,5.90
2018-09-15T03:13:05.047Z,6.50
2018-09-15T03:13:38.471Z,6.50
2018-09-15T03:14:11.979Z,6.30
2018-09-15T03:14:45.403Z,6.57
2018-09-15T03:15:18.946Z,6.13
2018-09-15T03:15:52.328Z,6.10
2018-09-15T03:16:25.840Z,6.47
2018-09-15T03:16:59.178Z,6.60
2018-09-15T03:17:32.790Z,6.70
2018-09-15T03:18:06.581Z,6.07
2018-09-15T03:18:40.064Z,6.57
2018-09-15T03:19:13.470Z,6.50
2018-09-15T03:19:46.881Z,6.20
2018-09-15T03:20:20.282Z,5.77
2018-09-15T03:20:53.672Z,6.30
2018-09-15T03:21:27.564Z,6.37
2018-09-15T03:22:00.882Z,6.23
2018-09-15T03:22:35.210Z,6.70
2018-09-15T03:23:08.745Z,6.10
2018-09-15T03:23:42.097Z,6.83
2018-09-15T03:24:15.453Z,6.20
2018-09-15T03:24:48.809Z,6.13
2018-09-15T03:25:22.196Z,6.87
2018-09-15T03:25:55.685Z,6.77
2018-09-15T03:26:29.276Z,6.07
2018-09-15T03:27:02.827Z,6.40
2018-09-15T03:27:36.272Z,6.13
2018-09-15T03:28:09.760Z,6.23
2018-09-15T03:28:43.352Z,6.13
2018-09-15T03:29:16.775Z,6.60
2018-09-15T03:29:50.245Z,6.97
2018-09-15T03:30:23.644Z,6.30
2018-09-15T03:30:57.083Z,6.37
2018-09-15T03:31:30.508Z,5.97
2018-09-15T03:32:04.858Z,5.77
2018-09-15T03:32:38.394Z,6.30
2018-09-15T03:33:11.768Z,6.40
2018-09-15T03:33:45.316Z,6.70
2018-09-15T03:34:18.897Z,6.33
2018-09-15T03:34:52.364Z,6.53
2018-09-15T03:35:25.976Z,6.47
2018-09-15T03:35:59.648Z,6.27
2018-09-15T03:36:33.021Z,6.43
2018-09-15T03:37:06.623Z,6.13
2018-09-15T03:37:40.095Z,6.47
2018-09-15T03:38:13.680Z,7.17
2018-09-15T03:38:47.148Z,6.57
2018-09-15T03:39:20.758Z,6.50
2018-09-15T03:39:54.109Z,6.00
2018-09-15T03:40:27.482Z,6.40
2018-09-15T03:41:00.853Z,6.73
2018-09-15T03:41:34.290Z,6.37
2018-09-15T03:42:07.671Z,6.63
2018-09-15T03:42:41.383Z,7.13
2018-09-15T03:43:14.828Z,6.80
2018-09-15T03:43:48.250Z,7.40
2018-09-15T03:44:21.607Z,7.17
2018-09-15T03:44:55.222Z,6.80
2018-09-15T03:45:28.658Z,6.67
2018-09-15T03:46:01.962Z,7.33
2018-09-15T03:46:35.529Z,6.67
2018-09-15T03:47:08.944Z,6.63
2018-09-15T03:47:42.465Z,6.77
2018-09-15T03:48:15.875Z,7.27
2018-09-15T03:48:49.290Z,7.03
2018-09-15T03:49:22.694Z,7.17
2018-09-15T03:49:56.151Z,7.10
2018-09-15T03:50:29.649Z,6.70
2018-09-15T03:51:03.085Z,6.87
2018-09-15T03:51:36.448Z,7.00
2018-09-15T03:52:09.789Z,6.67
2018-09-15T03:52:43.272Z,6.70
2018-09-15T03:53:16.616Z,7.10
2018-09-15T03:53:50.040Z,6.87
2018-09-15T03:54:23.387Z,6.67
2018-09-15T03:54:56.766Z,6.70
2018-09-15T03:55:30.183Z,6.93
2018-09-15T03:56:03.539Z,6.57
2018-09-15T03:56:36.928Z,6.77
2018-09-15T03:57:10.213Z,7.10
2018-09-15T03:57:43.741Z,6.43
2018-09-15T03:58:17.104Z,6.83
2018-09-15T03:58:50.460Z,7.03
2018-09-15T03:59:23.886Z,6.70
2018-09-15T03:59:57.399Z,6.47
2018-09-15T04:00:30.743Z,6.97
2018-09-15T04:01:04.107Z,6.73
2018-09-15T04:01:37.685Z,6.67
2018-09-15T04:02:11.862Z,7.23
2018-09-15T04:02:45.273Z,6.23
2018-09-15T04:03:18.843Z,7.03
2018-09-15T04:03:52.247Z,6.80
2018-09-15T04:04:25.660Z,6.47
2018-09-15T04:04:59.240Z,6.53
2018-09-15T04:05:32.933Z,6.27
2018-09-15T04:06:06.750Z,7.13
2018-09-15T04:06:40.147Z,6.70
2018-09-15T04:07:13.472Z,7.00
2018-09-15T04:07:47.011Z,7.10
2018-09-15T04:08:20.720Z,6.83
2018-09-15T04:08:54.186Z,6.30
2018-09-15T04:09:27.590Z,6.50
2018-09-15T04:10:00.967Z,6.60
2018-09-15T04:10:34.355Z,7.13
2018-09-15T04:11:07.756Z,6.93
2018-09-15T04:11:41.165Z,6.70
2018-09-15T04:12:14.500Z,6.73
2018-09-15T04:12:48.067Z,7.07
2018-09-15T04:13:21.562Z,6.40
2018-09-15T04:13:55.002Z,6.57
2018-09-15T04:14:28.391Z,6.73
2018-09-15T04:15:01.918Z,6.83
2018-09-15T04:15:35.286Z,7.33
2018-09-15T04:16:08.944Z,6.50
2018-09-15T04:16:42.307Z,6.97
2018-09-15T04:17:15.709Z,6.70
2018-09-15T04:17:49.176Z,7.10
2018-09-15T04:18:22.511Z,7.07
2018-09-15T04:18:56.020Z,6.57
2018-09-15T04:19:29.622Z,6.40
2018-09-15T04:20:02.959Z,6.23
2018-09-15T04:20:36.287Z,6.53
2018-09-15T04:21:09.697Z,6.07
2018-09-15T04:21:43.322Z,6.93
2018-09-15T04:22:16.663Z,6.43
2018-09-15T04:22:50.063Z,6.90
2018-09-15T04:23:23.385Z,6.30
2018-09-15T04:23:56.721Z,6.77
2018-09-15T04:24:30.149Z,7.03
2018-09-15T04:25:03.583Z,6.87
2018-09-15T04:25:37.052Z,6.20
2018-09-15T04:26:10.460Z,6.70
2018-09-15T04:26:43.860Z,7.17
2018-09-15T04:27:17.242Z,7.13
2018-09-15T04:27:50.671Z,7.53
2018-09-15T04:28:24.075Z,6.40
2018-09-15T04:28:57.427Z,6.67
2018-09-15T04:29:30.868Z,7.03
2018-09-15T04:30:04.616Z,7.20
2018-09-15T04:30:38.189Z,6.60
2018-09-15T04:31:11.707Z,6.57
2018-09-15T04:31:45.076Z,6.87
2018-09-15T04:32:18.435Z,6.47
2018-09-15T04:32:51.827Z,6.30
2018-09-15T04:33:25.527Z,6.03
2018-09-15T04:33:59.138Z,6.60
2018-09-15T04:34:32.707Z,6.73
2018-09-15T04:35:06.213Z,6.40
2018-09-15T04:35:40.655Z,6.47
2018-09-15T04:36:14.034Z,7.03
2018-09-15T04:36:47.571Z,6.80
2018-09-15T04:37:20.928Z,6.63
2018-09-15T04:37:54.698Z,7.07
2018-09-15T04:38:28.170Z,6.90
2018-09-15T04:39:01.698Z,6.90
2018-09-15T04:39:35.140Z,6.17
2018-09-15T04:40:08.973Z,6.90
2018-09-15T04:40:42.832Z,6.27
2018-09-15T04:41:16.317Z,6.13
2018-09-15T04:41:49.778Z,7.33
2018-09-15T04:42:23.108Z,6.50
2018-09-15T04:42:56.684Z,6.70
2018-09-15T04:43:30.032Z,7.47
2018-09-15T04:44:03.746Z,7.00
2018-09-15T04:44:37.281Z,6.17
2018-09-15T04:45:10.644Z,6.80
2018-09-15T04:45:44.101Z,7.37
2018-09-15T04:46:17.808Z,6.67
2018-09-15T04:46:51.207Z,6.40
2018-09-15T04:47:24.598Z,7.07
2018-09-15T04:47:58.062Z,6.77
2018-09-15T04:48:31.501Z,6.80
2018-09-15T04:49:05.142Z,7.07
2018-09-15T04:49:38.495Z,6.73
2018-09-15T04:50:12.083Z,7.03
2018-09-15T04:50:45.403Z,6.10
2018-09-15T04:51:18.803Z,6.30
2018-09-15T04:51:52.143Z,6.73
2018-09-15T04:52:25.552Z,7.03
2018-09-15T04:52:59.146Z,6.57
2018-09-15T04:53:32.584Z,7.47
2018-09-15T04:54:06.106Z,6.30
2018-09-15T04:54:39.509Z,6.53
2018-09-15T04:55:13.164Z,7.00
2018-09-15T04:55:46.515Z,6.40
2018-09-15T04:56:20.197Z,6.17
2018-09-15T04:56:53.525Z,6.47
2018-09-15T04:57:26.857Z,7.33
2018-09-15T04:58:00.459Z,6.50
2018-09-15T04:58:34.282Z,6.67
2018-09-15T04:59:07.625Z,6.50
2018-09-15T04:59:41.278Z,6.87
2018-09-15T05:00:14.708Z,6.77
2018-09-15T05:00:48.183Z,6.80
2018-09-15T05:01:21.476Z,6.97
2018-09-15T05:01:54.871Z,6.50
2018-09-15T05:02:28.456Z,6.60
2018-09-15T05:03:01.867Z,7.00
2018-09-15T05:03:35.337Z,6.40
2018-09-15T05:04:08.945Z,6.60
2018-09-15T05:04:42.399Z,6.87
2018-09-15T05:05:15.783Z,7.20
2018-09-15T05:05:49.185Z,6.90
2018-09-15T05:06:22.643Z,6.63
2018-09-15T05:06:56.073Z,7.23
2018-09-15T05:07:29.421Z,7.07
2018-09-15T05:08:02.782Z,6.67
2018-09-15T05:08:36.210Z,7.57
2018-09-15T05:09:11.688Z,6.87
2018-09-15T05:09:45.086Z,7.20
2018-09-15T05:10:18.459Z,7.23
2018-09-15T05:10:51.871Z,6.37
2018-09-15T05:11:25.235Z,6.83
2018-09-15T05:11:58.609Z,6.97
2018-09-15T05:12:32.022Z,6.40
2018-09-15T05:13:05.403Z,6.63
2018-09-15T05:13:38.787Z,6.77
2018-09-15T05:14:12.141Z,6.93
2018-09-15T05:14:45.517Z,6.80
2018-09-15T05:15:18.797Z,6.80
2018-09-15T05:15:52.154Z,7.00
2018-09-15T05:16:25.539Z,6.63
2018-09-15T05:16:58.939Z,6.33
2018-09-15T05:17:32.377Z,6.47
2018-09-15T05:18:05.843Z,6.97
2018-09-15T05:18:39.161Z,6.47
2018-09-15T05:19:12.570Z,6.60
2018-09-15T05:19:45.918Z,6.70
2018-09-15T05:20:19.576Z,6.57
2018-09-15T05:20:52.988Z,6.40
2018-09-15T05:21:26.272Z,6.80
2018-09-15T05:21:59.603Z,6.67
2018-09-15T05:22:33.011Z,6.17
2018-09-15T05:23:07.330Z,6.63
2018-09-15T05:23:40.779Z,7.00
2018-09-15T05:24:14.211Z,6.63
2018-09-15T05:24:47.536Z,6.57
2018-09-15T05:25:21.084Z,6.53
2018-09-15T05:25:54.422Z,7.60
2018-09-15T05:26:27.917Z,6.63
2018-09-15T05:27:01.297Z,7.07
2018-09-15T05:27:34.655Z,6.50
2018-09-15T05:28:08.393Z,6.43
2018-09-15T05:28:41.759Z,7.00
2018-09-15T05:29:15.112Z,5.97
2018-09-15T05:29:48.437Z,6.60
2018-09-15T05:30:21.869Z,7.13
2018-09-15T05:30:55.264Z,7.60
2018-09-15T05:31:28.689Z,6.70
2018-09-15T05:32:02.049Z,7.03
2018-09-15T05:32:35.433Z,6.67
2018-09-15T05:33:08.873Z,7.40
2018-09-15T05:33:42.231Z,7.10
2018-09-15T05:34:15.558Z,6.53
2018-09-15T05:34:48.930Z,6.77
2018-09-15T05:35:22.316Z,6.67
2018-09-15T05:35:55.640Z,6.63
2018-09-15T05:36:28.978Z,6.90
2018-09-15T05:37:02.657Z,7.10
2018-09-15T05:37:35.976Z,6.87
2018-09-15T05:38:09.356Z,6.70
2018-09-15T05:38:42.778Z,6.90
2018-09-15T05:39:16.281Z,6.70
2018-09-15T05:39:49.628Z,6.73
2018-09-15T05:40:22.995Z,6.90
2018-09-15T05:40:56.325Z,6.80
2018-09-15T05:41:29.737Z,6.80
2018-09-15T05:42:03.175Z,6.73
2018-09-15T05:42:36.588Z,6.97
2018-09-15T05:43:10.303Z,6.50
2018-09-15T05:43:43.638Z,5.97
2018-09-15T05:44:17.128Z,7.07
2018-09-15T05:44:50.463Z,6.63
2018-09-15T05:45:23.851Z,6.80
2018-09-15T05:45:57.232Z,6.97
2018-09-15T05:46:30.593Z,6.47
2018-09-15T05:47:03.948Z,6.50
2018-09-15T05:47:37.502Z,6.90
2018-09-15T05:48:10.882Z,6.43
2018-09-15T05:48:44.242Z,6.67
2018-09-15T05:49:17.686Z,6.73
2018-09-15T05:49:51.060Z,7.00
2018-09-15T05:50:24.501Z,6.97
2018-09-15T05:50:57.841Z,6.73
2018-09-15T05:51:31.237Z,7.73
2018-09-15T05:52:04.584Z,7.37
2018-09-15T05:52:38.004Z,7.73
2018-09-15T05:53:11.387Z,7.70
2018-09-15T05:53:44.821Z,7.10
2018-09-15T05:54:18.292Z,6.47
2018-09-15T05:54:52.112Z,7.30
2018-09-15T05:55:25.646Z,6.53
2018-09-15T05:55:59.029Z,7.07
2018-09-15T05:56:32.678Z,6.90
2018-09-15T05:57:06.155Z,6.63
2018-09-15T05:57:39.700Z,6.80
2018-09-15T05:58:13.166Z,7.00
2018-09-15T05:58:46.572Z,6.50
2018-09-15T05:59:20.105Z,6.60
2018-09-15T05:59:53.484Z,6.20
2018-09-15T06:00:27.080Z,6.90
2018-09-15T06:01:00.585Z,6.23
2018-09-15T06:01:34.110Z,6.40
2018-09-15T06:02:07.834Z,7.27
2018-09-15T06:02:41.215Z,6.67
2018-09-15T06:03:14.592Z,6.63
2018-09-15T06:03:48.264Z,6.70
2018-09-15T06:04:21.621Z,6.70
2018-09-15T06:04:55.048Z,5.90
2018-09-15T06:05:28.438Z,6.70
2018-09-15T06:06:01.846Z,6.53
2018-09-15T06:06:35.217Z,6.40
2018-09-15T06:07:08.687Z,6.20
2018-09-15T06:07:42.090Z,7.13
2018-09-15T06:08:15.446Z,6.67
2018-09-15T06:08:48.895Z,6.47
2018-09-15T06:09:22.348Z,6.40
2018-09-15T06:09:55.664Z,6.23
2018-09-15T06:10:29.121Z,6.97
2018-09-15T06:11:02.525Z,6.40
2018-09-15T06:11:36.075Z,6.60
2018-09-15T06:12:09.498Z,5.90
2018-09-15T06:12:43.089Z,6.23
2018-09-15T06:13:16.568Z,6.27
2018-09-15T06:13:50.303Z,6.60
2018-09-15T06:14:23.674Z,6.53
2018-09-15T06:14:57.076Z,6.23
2018-09-15T06:15:30.603Z,6.60
2018-09-15T06:16:04.052Z,6.30
2018-09-15T06:16:37.738Z,6.27
2018-09-15T06:17:11.119Z,6.40
2018-09-15T06:17:44.582Z,6.50
2018-09-15T06:18:18.028Z,5.80
2018-09-15T06:18:51.628Z,6.00
2018-09-15T06:19:25.048Z,5.37
2018-09-15T06:19:58.500Z,6.23
2018-09-15T06:20:31.923Z,6.23
2018-09-15T06:21:05.645Z,6.73
2018-09-15T06:21:39.129Z,6.73
2018-09-15T06:22:12.663Z,6.27
2018-09-15T06:22:45.995Z,6.50
2018-09-15T06:23:19.422Z,6.30
2018-09-15T06:23:52.831Z,6.90
2018-09-15T06:24:26.223Z,6.50
2018-09-15T06:24:59.702Z,5.97
2018-09-15T06:25:33.122Z,6.73
2018-09-15T06:26:06.749Z,6.37
2018-09-15T06:26:40.360Z,6.23
2018-09-15T06:27:13.713Z,5.80
2018-09-15T06:27:47.053Z,5.73
2018-09-15T06:28:20.464Z,6.10
2018-09-15T06:28:53.942Z,6.60
2018-09-15T06:29:27.326Z,6.07
2018-09-15T06:30:00.755Z,6.07
2018-09-15T06:30:34.115Z,6.43
2018-09-15T06:31:07.442Z,6.27
2018-09-15T06:31:40.940Z,5.93
2018-09-15T06:32:14.395Z,5.97
2018-09-15T06:32:47.772Z,5.80
2018-09-15T06:33:21.212Z,6.00
2018-09-15T06:33:54.613Z,5.60
2018-09-15T06:34:27.936Z,6.60
2018-09-15T06:35:01.293Z,6.57
2018-09-15T06:35:34.705Z,6.33
2018-09-15T06:36:08.080Z,5.73
2018-09-15T06:36:41.462Z,6.30
2018-09-15T06:37:14.856Z,5.83
2018-09-15T06:37:48.334Z,5.83
2018-09-15T06:38:21.664Z,6.17
2018-09-15T06:38:55.060Z,6.50
2018-09-15T06:39:28.457Z,5.93
2018-09-15T06:40:01.806Z,6.17
2018-09-15T06:40:35.172Z,6.80
2018-09-15T06:41:08.463Z,5.80
2018-09-15T06:41:41.899Z,5.60
2018-09-15T06:42:15.316Z,5.83
2018-09-15T06:42:48.730Z,5.70
2018-09-15T06:43:22.082Z,6.10
2018-09-15T06:43:55.593Z,5.97
2018-09-15T06:44:29.116Z,5.90
2018-09-15T06:45:02.585Z,6.17
2018-09-15T06:45:36.030Z,5.50
2018-09-15T06:46:09.503Z,6.30
2018-09-15T06:46:42.933Z,6.00
2018-09-15T06:47:16.484Z,5.77
2018-09-15T06:47:50.160Z,6.27
2018-09-15T06:48:23.577Z,5.97
2018-09-15T06:48:57.124Z,5.60
2018-09-15T06:49:30.507Z,5.57
2018-09-15T06:50:04.346Z,5.90
2018-09-15T06:50:37.887Z,5.93
2018-09-15T06:51:11.349Z,5.87
2018-09-15T06:51:44.749Z,6.33
2018-09-15T06:52:18.153Z,6.03
2018-09-15T06:52:51.505Z,6.10
2018-09-15T06:53:24.853Z,5.70
2018-09-15T06:53:58.928Z,5.80
2018-09-15T06:54:32.269Z,6.20
2018-09-15T06:55:05.929Z,6.47
2018-09-15T06:55:39.327Z,5.20
2018-09-15T06:56:12.732Z,5.47
2018-09-15T06:56:46.136Z,5.63
2018-09-15T06:57:19.667Z,6.13
2018-09-15T06:57:53.027Z,5.53
2018-09-15T06:58:26.485Z,5.90
2018-09-15T06:58:59.961Z,5.73
2018-09-15T06:59:33.247Z,6.37
2018-09-15T07:00:06.698Z,6.03
2018-09-15T07:00:40.102Z,5.87
2018-09-15T07:01:13.594Z,4.90
2018-09-15T07:01:46.993Z,5.40
2018-09-15T07:02:20.452Z,6.00
2018-09-15T07:02:53.840Z,5.73
2018-09-15T07:03:27.361Z,5.87
2018-09-15T07:04:00.726Z,5.73
2018-09-15T07:04:34.093Z,6.07
2018-09-15T07:05:07.543Z,5.77
2018-09-15T07:05:40.921Z,5.57
2018-09-15T07:06:14.428Z,5.47
2018-09-15T07:06:47.866Z,5.97
2018-09-15T07:07:21.205Z,5.17
2018-09-15T07:07:54.574Z,6.70
2018-09-15T07:08:27.906Z,5.37
2018-09-15T07:09:01.218Z,5.90
2018-09-15T07:09:34.637Z,5.53
2018-09-15T07:10:08.011Z,5.70
2018-09-15T07:10:41.384Z,5.60
2018-09-15T07:11:14.668Z,5.53
2018-09-15T07:11:47.994Z,5.60
2018-09-15T07:12:21.463Z,5.50
2018-09-15T07:12:54.894Z,5.77
2018-09-15T07:13:28.267Z,5.97
2018-09-15T07:14:01.672Z,6.07
2018-09-15T07:14:35.013Z,5.57
2018-09-15T07:15:08.548Z,5.33
2018-09-15T07:15:41.931Z,5.83
2018-09-15T07:16:15.266Z,5.40
2018-09-15T07:16:48.670Z,5.43
2018-09-15T07:17:22.068Z,5.40
2018-09-15T07:17:55.518Z,5.77
2018-09-15T07:18:28.936Z,5.33
2018-09-15T07:19:02.690Z,5.53
2018-09-15T07:19:36.135Z,5.53
2018-09-15T07:20:09.742Z,5.07
2018-09-15T07:20:43.774Z,5.37
2018-09-15T07:21:17.168Z,4.93
2018-09-15T07:21:50.969Z,5.13
2018-09-15T07:22:24.373Z,5.83
2018-09-15T07:22:57.829Z,5.03
2018-09-15T07:23:31.879Z,6.00
2018-09-15T07:24:05.606Z,5.23
2018-09-15T07:24:39.039Z,5.40
2018-09-15T07:25:12.459Z,5.17
2018-09-15T07:25:45.921Z,5.17